createdAt,value
2023-03-27T00:00:02.275Z,97330.81
2023-03-27T00:02:50.505Z,97342.34
2023-03-27T00:05:36.314Z,97347.69
2023-03-27T00:08:21.764Z,97352.56
2023-03-27T00:11:07.136Z,97356.78
2023-03-27T00:13:52.613Z,97352.25
2023-03-27T00:16:37.785Z,97358.78
2023-03-27T00:19:23.577Z,97371.50
2023-03-27T00:22:08.708Z,97377.19
2023-03-27T00:24:54.142Z,97372.16
2023-03-27T00:27:39.414Z,97385.31
2023-03-27T00:30:26.475Z,97387.13
2023-03-27T00:33:12.794Z,97394.63
2023-03-27T00:35:58.364Z,97402.72
2023-03-27T00:38:43.446Z,97407.28
2023-03-27T00:41:35.614Z,97405.59
2023-03-27T00:44:29.865Z,97410.50
2023-03-27T00:47:16.052Z,97408.84
2023-03-27T00:50:07.375Z,97413.22
2023-03-27T00:52:57.023Z,97422.56
2023-03-27T00:55:47.543Z,97370.06
2023-03-27T00:58:39.760Z,97430.34
2023-03-27T01:01:27.771Z,97438.75
2023-03-27T01:04:13.693Z,97445.97
2023-03-27T01:06:59.090Z,97443.84
2023-03-27T01:09:45.175Z,97401.06
2023-03-27T01:12:30.519Z,97455.38
2023-03-27T01:15:25.259Z,97464.97
2023-03-27T01:18:41.774Z,97459.91
2023-03-27T01:22:01.952Z,97466.22
2023-03-27T01:25:18.026Z,97475.50
2023-03-27T01:28:33.768Z,97471.94
2023-03-27T01:31:44.037Z,97472.44
2023-03-27T01:34:47.794Z,97478.19
2023-03-27T01:37:52.695Z,97472.97
2023-03-27T01:40:50.359Z,97481.75
2023-03-27T01:44:06.602Z,97476.41
2023-03-27T01:47:03.541Z,97490.31
2023-03-27T01:50:02.149Z,97501.16
2023-03-27T01:52:56.324Z,97510.75
2023-03-27T01:55:47.188Z,97513.44
2023-03-27T01:58:40.197Z,97494.88
2023-03-27T02:01:33.859Z,97526.41
2023-03-27T02:04:33.405Z,97515.06
2023-03-27T02:07:28.089Z,97537.09
2023-03-27T02:10:19.614Z,97541.41
2023-03-27T02:13:09.590Z,97544.84
2023-03-27T02:15:58.698Z,97531.75
2023-03-27T02:18:50.059Z,97542.38
2023-03-27T02:21:35.766Z,97557.59
2023-03-27T02:24:22.198Z,97511.34
2023-03-27T02:27:16.843Z,97549.34
2023-03-27T02:30:14.643Z,97577.63
2023-03-27T02:33:18.312Z,97579.56
2023-03-27T02:36:11.153Z,97581.28
2023-03-27T02:39:04.260Z,97579.44
2023-03-27T02:41:56.885Z,97600.06
2023-03-27T02:45:09.506Z,97612.75
2023-03-27T02:48:35.158Z,97622.94
2023-03-27T02:51:41.784Z,97632.97
2023-03-27T02:54:32.214Z,97592.19
2023-03-27T02:57:25.105Z,97659.53
2023-03-27T03:00:45.681Z,97662.91
2023-03-27T03:03:46.787Z,97651.97
2023-03-27T03:06:50.639Z,97669.94
2023-03-27T03:09:40.423Z,97657.44
2023-03-27T03:12:27.354Z,97684.28
2023-03-27T03:15:13.492Z,97690.41
2023-03-27T03:17:58.633Z,97681.75
2023-03-27T03:20:44.059Z,97696.75
2023-03-27T03:23:29.142Z,97709.03
2023-03-27T03:26:14.842Z,97719.72
2023-03-27T03:29:04.342Z,97723.75
2023-03-27T03:31:53.061Z,97733.19
2023-03-27T03:34:38.546Z,97734.56
2023-03-27T03:37:23.773Z,97717.94
2023-03-27T03:40:09.653Z,97739.25
2023-03-27T03:42:54.960Z,97750.69
2023-03-27T03:45:44.366Z,97741.25
2023-03-27T03:48:29.726Z,97771.34
2023-03-27T03:51:14.919Z,97780.00
2023-03-27T03:54:00.643Z,97785.50
2023-03-27T03:56:46.368Z,97792.41
2023-03-27T03:59:32.101Z,97762.63
2023-03-27T04:02:44.154Z,97812.84
2023-03-27T04:05:32.306Z,97813.72
2023-03-27T04:08:17.632Z,97819.06
2023-03-27T04:11:02.977Z,97829.22
2023-03-27T04:14:06.703Z,97830.28
2023-03-27T04:16:57.670Z,97838.75
2023-03-27T04:19:44.919Z,97849.56
2023-03-27T04:22:30.126Z,97845.34
2023-03-27T04:25:17.703Z,97847.25
2023-03-27T04:28:03.735Z,97857.03
2023-03-27T04:30:56.572Z,97840.69
2023-03-27T04:34:01.003Z,97865.41
2023-03-27T04:37:06.654Z,97856.81
2023-03-27T04:39:52.547Z,97881.97
2023-03-27T04:42:39.122Z,97891.75
2023-03-27T04:45:24.222Z,97899.16
2023-03-27T04:48:10.074Z,97902.06
2023-03-27T04:50:56.293Z,97905.88
2023-03-27T04:53:49.978Z,97915.13
2023-03-27T04:56:35.429Z,97914.75
2023-03-27T04:59:21.704Z,97918.44
2023-03-27T05:02:27.575Z,97928.56
2023-03-27T05:05:20.638Z,97932.94
2023-03-27T05:08:06.036Z,97938.94
2023-03-27T05:10:51.617Z,97936.88
2023-03-27T05:13:37.147Z,97944.66
2023-03-27T05:16:22.782Z,97931.56
2023-03-27T05:19:13.257Z,97951.47
2023-03-27T05:22:03.142Z,97955.03
2023-03-27T05:24:48.826Z,97963.78
2023-03-27T05:27:34.560Z,97969.25
2023-03-27T05:30:22.388Z,97924.00
2023-03-27T05:33:11.858Z,97980.25
2023-03-27T05:35:57.347Z,97897.50
2023-03-27T05:38:46.055Z,97993.63
2023-03-27T05:41:35.357Z,97988.97
2023-03-27T05:44:22.741Z,97997.47
2023-03-27T05:47:10.293Z,98001.97
2023-03-27T05:49:55.472Z,98011.00
2023-03-27T05:52:41.154Z,98010.31
2023-03-27T05:55:27.762Z,98006.41
2023-03-27T05:58:14.867Z,98024.75
2023-03-27T06:01:00.450Z,98021.66
2023-03-27T06:03:46.039Z,98016.78
2023-03-27T06:06:35.558Z,98024.94
2023-03-27T06:09:21.391Z,98027.94
2023-03-27T06:12:26.721Z,98021.59
2023-03-27T06:15:20.491Z,98029.81
2023-03-27T06:18:20.815Z,98036.63
2023-03-27T06:21:06.505Z,98048.34
2023-03-27T06:23:52.037Z,98044.03
2023-03-27T06:26:37.490Z,98049.75
2023-03-27T06:29:22.885Z,98055.97
2023-03-27T06:32:10.213Z,98020.78
2023-03-27T06:35:00.324Z,98068.06
2023-03-27T06:38:06.067Z,98075.91
2023-03-27T06:40:51.156Z,98067.66
2023-03-27T06:43:36.829Z,98089.75
2023-03-27T06:46:42.674Z,98086.78
2023-03-27T06:49:34.334Z,98083.59
2023-03-27T06:52:27.572Z,98018.31
2023-03-27T06:55:23.462Z,98091.41
2023-03-27T06:58:12.316Z,98094.16
2023-03-27T07:00:58.777Z,98103.78
2023-03-27T07:03:53.725Z,98112.56
2023-03-27T07:06:58.146Z,98114.28
2023-03-27T07:09:49.456Z,98115.78
2023-03-27T07:12:39.055Z,98116.66
2023-03-27T07:15:25.153Z,98117.34
2023-03-27T07:18:11.603Z,98130.22
2023-03-27T07:20:57.379Z,98130.22
2023-03-27T07:23:43.110Z,98096.34
2023-03-27T07:26:33.514Z,98142.84
2023-03-27T07:29:20.707Z,98147.44
2023-03-27T07:32:12.178Z,98100.59
2023-03-27T07:35:03.253Z,98156.09
2023-03-27T07:38:07.244Z,98168.47
2023-03-27T07:40:55.419Z,98159.44
2023-03-27T07:44:03.773Z,98152.50
2023-03-27T07:47:00.280Z,98147.38
2023-03-27T07:49:45.547Z,98148.97
2023-03-27T07:52:33.448Z,98160.66
2023-03-27T07:55:21.694Z,98148.88
2023-03-27T07:58:18.508Z,98175.72
2023-03-27T08:01:03.862Z,98169.97
2023-03-27T08:03:50.054Z,98175.34
2023-03-27T08:06:37.494Z,98110.19
2023-03-27T08:09:26.316Z,98178.16
2023-03-27T08:12:11.462Z,98173.63
2023-03-27T08:15:01.173Z,98185.53
2023-03-27T08:17:48.001Z,98193.88
2023-03-27T08:20:33.124Z,98191.19
2023-03-27T08:23:18.401Z,98204.22
2023-03-27T08:26:22.463Z,98197.78
2023-03-27T08:29:12.842Z,98200.56
2023-03-27T08:31:58.973Z,98204.63
2023-03-27T08:34:44.114Z,98209.34
2023-03-27T08:37:30.266Z,98215.59
2023-03-27T08:40:38.996Z,98216.88
2023-03-27T08:43:44.955Z,98218.56
2023-03-27T08:46:45.255Z,98176.97
2023-03-27T08:49:39.851Z,98226.19
2023-03-27T08:52:40.311Z,98202.53
2023-03-27T08:55:39.167Z,98163.56
2023-03-27T08:58:57.215Z,98236.31
2023-03-27T09:02:08.683Z,98239.63
2023-03-27T09:05:06.587Z,98238.03
2023-03-27T09:08:08.819Z,98248.19
2023-03-27T09:11:01.713Z,98243.41
2023-03-27T09:13:56.034Z,98249.28
2023-03-27T09:16:49.202Z,98211.66
2023-03-27T09:19:54.365Z,98252.06
2023-03-27T09:22:48.597Z,98262.66
2023-03-27T09:25:47.506Z,98250.56
2023-03-27T09:28:48.996Z,98252.91
2023-03-27T09:31:50.238Z,98251.38
2023-03-27T09:34:36.356Z,98188.59
2023-03-27T09:37:21.816Z,98247.66
2023-03-27T09:40:17.443Z,98248.03
2023-03-27T09:43:08.637Z,98247.16
2023-03-27T09:45:58.923Z,98252.69
2023-03-27T09:48:48.868Z,98249.59
2023-03-27T09:51:43.609Z,98252.09
2023-03-27T09:54:53.974Z,98252.50
2023-03-27T09:58:13.160Z,98207.31
2023-03-27T10:01:26.521Z,98252.38
2023-03-27T10:04:20.530Z,98257.50
2023-03-27T10:07:25.021Z,98254.50
2023-03-27T10:10:29.345Z,98262.91
2023-03-27T10:13:37.162Z,98260.94
2023-03-27T10:16:23.281Z,98197.78
2023-03-27T10:19:32.835Z,98227.81
2023-03-27T10:22:24.839Z,98227.59
2023-03-27T10:25:18.364Z,98259.03
2023-03-27T10:28:38.465Z,98268.69
2023-03-27T10:31:36.932Z,98268.56
2023-03-27T10:34:59.462Z,98274.78
2023-03-27T10:38:23.499Z,98280.00
2023-03-27T10:41:28.489Z,98259.19
2023-03-27T10:44:20.375Z,98284.66
2023-03-27T10:47:22.724Z,98271.53
2023-03-27T10:50:21.167Z,98296.44
2023-03-27T10:53:31.341Z,98300.41
2023-03-27T10:56:29.298Z,98304.66
2023-03-27T10:59:41.008Z,98306.66
2023-03-27T11:02:41.322Z,98304.63
2023-03-27T11:05:31.964Z,98307.03
2023-03-27T11:08:35.474Z,98304.94
2023-03-27T11:11:29.544Z,98293.31
2023-03-27T11:14:25.133Z,98278.31
2023-03-27T11:17:15.680Z,98296.69
2023-03-27T11:20:10.284Z,98292.47
2023-03-27T11:23:24.618Z,98291.16
2023-03-27T11:26:55.591Z,98295.69
2023-03-27T11:29:58.409Z,98298.69
2023-03-27T11:33:05.575Z,98304.91
2023-03-27T11:40:03.054Z,98309.84
2023-03-27T11:42:50.140Z,98308.88
2023-03-27T11:45:52.309Z,98307.88
2023-03-27T11:48:52.873Z,98304.59
2023-03-27T11:52:09.748Z,98303.41
2023-03-27T11:55:06.875Z,98298.03
2023-03-27T11:58:08.241Z,98298.44
2023-03-27T12:01:28.214Z,98309.59
2023-03-27T12:04:48.752Z,98342.94
2023-03-27T12:08:17.527Z,98351.41
2023-03-27T12:11:07.256Z,98356.63
2023-03-27T12:14:14.127Z,98365.47
2023-03-27T12:17:09.173Z,98380.84
2023-03-27T12:20:32.576Z,98346.06
2023-03-27T12:23:47.405Z,98365.47
2023-03-27T12:26:51.565Z,98361.50
2023-03-27T12:30:18.335Z,98357.38
2023-03-27T12:33:13.694Z,98357.75
2023-03-27T12:36:03.391Z,98348.72
2023-03-27T12:38:48.842Z,98355.91
2023-03-27T12:41:38.184Z,98343.78
2023-03-27T12:44:32.235Z,98340.16
2023-03-27T12:47:25.428Z,98339.19
2023-03-27T12:50:27.445Z,98307.00
2023-03-27T12:53:26.968Z,98332.13
2023-03-27T12:56:16.784Z,98327.88
2023-03-27T12:59:18.434Z,98323.94
2023-03-27T13:02:03.929Z,98314.44
2023-03-27T13:04:58.844Z,98325.88
2023-03-27T13:08:07.209Z,98328.53
2023-03-27T13:11:37.363Z,98320.66
2023-03-27T13:14:42.098Z,98322.44
2023-03-27T13:18:09.637Z,98343.59
2023-03-27T13:21:12.884Z,98303.53
2023-03-27T13:24:05.671Z,98336.25
2023-03-27T13:27:11.679Z,98339.31
2023-03-27T13:29:58.655Z,98328.44
2023-03-27T13:33:34.421Z,98322.25
2023-03-27T13:36:23.219Z,98328.16
2023-03-27T13:39:15.176Z,98320.72
2023-03-27T13:42:13.203Z,98310.72
2023-03-27T13:45:08.606Z,98258.06
2023-03-27T13:48:15.606Z,98319.59
2023-03-27T13:51:15.790Z,98326.78
2023-03-27T13:54:19.965Z,98320.47
2023-03-27T13:57:38.721Z,98315.72
2023-03-27T14:01:01.406Z,98322.22
2023-03-27T14:04:05.229Z,98334.16
2023-03-27T14:07:18.128Z,98323.78
2023-03-27T14:10:53.880Z,98325.47
2023-03-27T14:14:06.840Z,98347.56
2023-03-27T14:16:58.185Z,98330.34
2023-03-27T14:20:01.258Z,98334.66
2023-03-27T14:22:57.223Z,98338.25
2023-03-27T14:26:01.754Z,98349.56
2023-03-27T14:28:59.789Z,98350.63
2023-03-27T14:32:15.612Z,98370.53
2023-03-27T14:35:06.375Z,98370.44
2023-03-27T14:38:15.135Z,98385.00
2023-03-27T14:41:02.585Z,98396.28
2023-03-27T14:44:04.754Z,98430.22
2023-03-27T14:47:03.443Z,98438.16
2023-03-27T14:49:51.144Z,98443.25
2023-03-27T14:52:52.589Z,98431.47
2023-03-27T14:55:39.627Z,98435.56
2023-03-27T14:58:52.023Z,98438.38
2023-03-27T15:01:41.273Z,98442.38
2023-03-27T15:04:29.006Z,98443.69
2023-03-27T15:07:22.802Z,98360.06
2023-03-27T15:10:18.412Z,98435.53
2023-03-27T15:13:32.311Z,98438.97
2023-03-27T15:16:24.804Z,98444.22
2023-03-27T15:19:36.159Z,98441.97
2023-03-27T15:22:29.921Z,98421.34
2023-03-27T15:25:20.659Z,98433.91
2023-03-27T15:28:14.665Z,98444.03
2023-03-27T15:31:03.010Z,98407.72
2023-03-27T15:34:46.687Z,98447.28
2023-03-27T15:37:32.531Z,98438.19
2023-03-27T15:40:19.413Z,98453.16
2023-03-27T15:43:13.931Z,98459.94
2023-03-27T15:46:13.362Z,98502.06
2023-03-27T15:49:18.312Z,98518.34
2023-03-27T15:52:29.664Z,98526.47
2023-03-27T15:55:31.717Z,98521.03
2023-03-27T15:58:46.020Z,98503.94
2023-03-27T16:01:39.788Z,98498.50
2023-03-27T16:04:45.291Z,98491.03
2023-03-27T16:07:43.996Z,98480.78
2023-03-27T16:10:32.054Z,98476.34
2023-03-27T16:13:26.939Z,98505.91
2023-03-27T16:16:28.323Z,98501.03
2023-03-27T16:19:14.299Z,98521.34
2023-03-27T16:21:59.336Z,98522.03
2023-03-27T16:24:44.570Z,98517.34
2023-03-27T16:27:55.810Z,98520.19
2023-03-27T16:30:41.130Z,98532.72
2023-03-27T16:33:26.883Z,98539.56
2023-03-27T16:36:14.400Z,98543.06
2023-03-27T16:38:59.668Z,98547.53
2023-03-27T16:41:45.826Z,98544.78
2023-03-27T16:44:31.031Z,98548.00
2023-03-27T16:47:17.354Z,98457.22
2023-03-27T16:52:51.476Z,98554.94
2023-03-27T16:55:38.928Z,98563.88
2023-03-27T16:58:24.609Z,98564.81
2023-03-27T17:01:10.188Z,98566.94
2023-03-27T17:03:55.405Z,98570.09
2023-03-27T17:06:40.931Z,98577.25
2023-03-27T17:09:26.185Z,98570.53
2023-03-27T17:12:11.275Z,98563.34
2023-03-27T17:14:57.000Z,98552.91
2023-03-27T17:17:42.294Z,98586.09
2023-03-27T17:20:28.134Z,98521.06
2023-03-27T17:23:13.218Z,98591.41
2023-03-27T17:26:02.975Z,98598.25
2023-03-27T17:28:48.691Z,98606.25
2023-03-27T17:31:34.348Z,98606.53
2023-03-27T17:34:19.840Z,98565.44
2023-03-27T17:37:04.948Z,98591.91
2023-03-27T17:39:50.332Z,98611.53
2023-03-27T17:42:36.505Z,98609.13
2023-03-27T17:45:21.941Z,98619.75
2023-03-27T17:48:08.160Z,98611.25
2023-03-27T17:51:07.507Z,98620.53
2023-03-27T17:53:54.019Z,98625.09
2023-03-27T17:56:39.234Z,98630.47
2023-03-27T17:59:24.550Z,98600.44
2023-03-27T18:02:16.386Z,98637.28
2023-03-27T18:05:01.863Z,98624.06
2023-03-27T18:07:47.921Z,98642.41
2023-03-27T18:10:35.329Z,98658.88
2023-03-27T18:13:21.171Z,98663.75
2023-03-27T18:16:09.180Z,98652.56
2023-03-27T18:18:55.322Z,98673.25
2023-03-27T18:21:40.697Z,98660.03
2023-03-27T18:24:26.245Z,98664.06
2023-03-27T18:27:11.583Z,98662.94
2023-03-27T18:29:56.920Z,98662.41
2023-03-27T18:32:45.111Z,98669.44
2023-03-27T18:35:32.149Z,98674.41
2023-03-27T18:38:18.801Z,98680.41
2023-03-27T18:41:04.031Z,98680.88
2023-03-27T18:43:50.692Z,98684.53
2023-03-27T18:46:36.566Z,98675.44
2023-03-27T18:49:25.374Z,98667.31
2023-03-27T18:52:10.895Z,98681.09
2023-03-27T18:54:56.334Z,98682.75
2023-03-27T18:57:41.822Z,98675.41
2023-03-27T19:00:27.400Z,98687.06
2023-03-27T19:03:14.786Z,98680.41
2023-03-27T19:06:02.617Z,98684.41
2023-03-27T19:08:50.788Z,98691.06
2023-03-27T19:11:36.497Z,98687.88
2023-03-27T19:14:26.842Z,98685.84
2023-03-27T19:17:32.896Z,98691.81
2023-03-27T19:20:37.045Z,98664.25
2023-03-27T19:23:50.194Z,98691.13
2023-03-27T19:26:39.400Z,98626.50
2023-03-27T19:29:24.813Z,98688.91
2023-03-27T19:32:10.459Z,98689.66
2023-03-27T19:34:55.791Z,98691.56
2023-03-27T19:37:41.367Z,98692.50
2023-03-27T19:40:26.706Z,98697.47
2023-03-27T19:43:11.831Z,98698.66
2023-03-27T19:46:14.253Z,98697.78
2023-03-27T19:49:00.530Z,98705.41
2023-03-27T19:52:05.068Z,98649.25
2023-03-27T19:54:50.258Z,98705.41
2023-03-27T19:57:35.398Z,98618.34
2023-03-27T20:00:20.653Z,98687.03
2023-03-27T20:03:09.215Z,98697.38
2023-03-27T20:05:55.922Z,98679.84
2023-03-27T20:08:52.765Z,98690.75
2023-03-27T20:11:38.333Z,98706.59
2023-03-27T20:14:23.707Z,98715.47
2023-03-27T20:17:18.142Z,98694.50
2023-03-27T20:20:12.819Z,98715.81
2023-03-27T20:22:58.266Z,98711.84
2023-03-27T20:25:44.905Z,98720.28
2023-03-27T20:28:30.476Z,98716.16
2023-03-27T20:31:17.616Z,98720.19
2023-03-27T20:34:04.050Z,98657.41
2023-03-27T20:36:49.974Z,98724.13
2023-03-27T20:40:08.481Z,98678.88
2023-03-27T20:42:53.770Z,98725.31
2023-03-27T20:45:42.609Z,98713.97
2023-03-27T20:48:28.365Z,98722.13
2023-03-27T20:51:15.955Z,98634.31
2023-03-27T20:54:01.446Z,98721.09
2023-03-27T20:56:46.811Z,98722.78
2023-03-27T20:59:34.928Z,98724.50
2023-03-27T21:02:21.073Z,98711.41
2023-03-27T21:05:06.696Z,98727.81
2023-03-27T21:07:52.181Z,98667.25
2023-03-27T21:10:37.869Z,98735.53
2023-03-27T21:13:23.037Z,98743.66
2023-03-27T21:16:09.230Z,98740.09
2023-03-27T21:18:54.404Z,98744.00
2023-03-27T21:21:40.026Z,98742.69
2023-03-27T21:24:25.222Z,98747.53
2023-03-27T21:27:10.643Z,98743.78
2023-03-27T21:29:56.158Z,98743.78
2023-03-27T21:32:42.359Z,98745.44
2023-03-27T21:35:27.849Z,98742.09
2023-03-27T21:38:15.030Z,98752.16
2023-03-27T21:41:01.829Z,98758.78
2023-03-27T21:43:47.088Z,98721.81
2023-03-27T21:46:32.779Z,98751.81
2023-03-27T21:49:18.067Z,98759.22
2023-03-27T21:52:03.297Z,98758.19
2023-03-27T21:55:02.125Z,98763.84
2023-03-27T21:57:48.346Z,98755.00
2023-03-27T22:00:33.339Z,98757.50
2023-03-27T22:03:18.638Z,98759.47
2023-03-27T22:06:11.845Z,98761.72
2023-03-27T22:08:58.805Z,98759.16
2023-03-27T22:11:44.361Z,98765.28
2023-03-27T22:14:29.844Z,98770.00
2023-03-27T22:17:15.301Z,98768.25
2023-03-27T22:20:00.686Z,98762.56
2023-03-27T22:22:46.709Z,98772.16
2023-03-27T22:25:32.347Z,98772.75
2023-03-27T22:28:17.910Z,98781.09
2023-03-27T22:31:03.350Z,98781.13
2023-03-27T22:33:48.884Z,98786.53
2023-03-27T22:36:34.506Z,98787.84
2023-03-27T22:42:05.444Z,98787.03
2023-03-27T22:44:50.921Z,98786.91
2023-03-27T22:47:36.087Z,98784.66
2023-03-27T22:50:21.385Z,98788.78
2023-03-27T22:53:06.319Z,98791.28
2023-03-27T22:55:53.728Z,98796.94
2023-03-27T22:58:39.278Z,98796.25
2023-03-27T23:01:24.599Z,98801.34
2023-03-27T23:04:09.900Z,98801.44
2023-03-27T23:06:55.083Z,98804.41
2023-03-27T23:09:40.700Z,98804.03
2023-03-27T23:12:25.801Z,98755.00
2023-03-27T23:15:11.074Z,98815.69
2023-03-27T23:17:56.598Z,98800.97
2023-03-27T23:20:41.665Z,98818.09
2023-03-27T23:23:29.493Z,98824.00
2023-03-27T23:26:15.733Z,98782.78
2023-03-27T23:29:03.646Z,98813.13
2023-03-27T23:31:49.158Z,98822.69
2023-03-27T23:34:34.481Z,98820.56
2023-03-27T23:37:19.600Z,98828.97
2023-03-27T23:40:05.604Z,98823.19
2023-03-27T23:42:50.730Z,98835.00
2023-03-27T23:45:36.356Z,98775.91
2023-03-27T23:48:22.436Z,98817.69
2023-03-27T23:51:08.750Z,98833.28
2023-03-27T23:53:54.057Z,98842.16
2023-03-27T23:56:39.631Z,98838.06
2023-03-27T23:59:24.732Z,98836.63
